createdAt,value
2018-12-09T00:02:09.620Z,7.70
2018-12-09T00:04:35.767Z,7.80
2018-12-09T00:07:02.152Z,7.80
2018-12-09T00:09:28.468Z,7.80
2018-12-09T00:11:54.785Z,7.80
2018-12-09T00:14:21.090Z,7.70
2018-12-09T00:16:48.160Z,7.80
2018-12-09T00:19:14.292Z,7.80
2018-12-09T00:21:46.704Z,7.80
2018-12-09T00:24:13.074Z,7.80
2018-12-09T00:26:39.335Z,7.80
2018-12-09T00:29:06.578Z,7.90
2018-12-09T00:31:32.852Z,7.90
2018-12-09T00:33:59.943Z,7.90
2018-12-09T00:36:26.218Z,7.90
2018-12-09T00:38:53.648Z,7.90
2018-12-09T00:41:20.822Z,8.00
2018-12-09T00:43:47.337Z,8.00
2018-12-09T00:46:13.607Z,8.00
2018-12-09T00:48:39.875Z,7.90
2018-12-09T00:51:06.215Z,7.80
2018-12-09T00:53:32.492Z,7.70
2018-12-09T00:56:00.704Z,7.50
2018-12-09T00:58:26.857Z,7.40
2018-12-09T01:00:53.143Z,7.40
2018-12-09T01:03:19.408Z,7.40
2018-12-09T01:05:46.617Z,7.40
2018-12-09T01:08:19.183Z,7.40
2018-12-09T01:10:45.507Z,7.50
2018-12-09T01:13:11.801Z,7.50
2018-12-09T01:15:38.394Z,7.50
2018-12-09T01:18:04.702Z,7.50
2018-12-09T01:20:37.328Z,7.60
2018-12-09T01:23:03.729Z,7.60
2018-12-09T01:25:36.271Z,7.70
2018-12-09T01:28:02.679Z,7.80
2018-12-09T01:30:29.035Z,7.80
2018-12-09T01:32:56.518Z,7.90
2018-12-09T01:35:31.352Z,7.90
2018-12-09T01:37:57.610Z,7.90
2018-12-09T01:40:24.586Z,7.90
2018-12-09T01:42:50.875Z,7.90
2018-12-09T01:45:18.126Z,7.80
2018-12-09T01:47:45.129Z,7.80
2018-12-09T01:50:11.552Z,7.80
2018-12-09T01:52:37.732Z,7.80
2018-12-09T01:55:04.044Z,7.80
2018-12-09T01:57:30.335Z,7.80
2018-12-09T01:59:56.704Z,7.80
2018-12-09T02:02:23.208Z,7.80
2018-12-09T02:04:55.783Z,7.80
2018-12-09T02:07:22.165Z,7.80
2018-12-09T02:09:48.654Z,7.80
2018-12-09T02:12:15.320Z,7.80
2018-12-09T02:14:41.820Z,7.90
2018-12-09T02:17:08.177Z,7.90
2018-12-09T02:19:34.532Z,7.90
2018-12-09T02:22:00.943Z,7.90
2018-12-09T02:24:28.259Z,7.90
2018-12-09T02:27:00.826Z,7.90
2018-12-09T02:29:27.121Z,7.90
2018-12-09T02:31:53.392Z,7.90
2018-12-09T02:34:20.059Z,7.90
2018-12-09T02:36:46.468Z,7.90
2018-12-09T02:39:13.143Z,7.90
2018-12-09T02:41:39.490Z,7.90
2018-12-09T02:44:05.834Z,7.90
2018-12-09T02:46:33.032Z,7.90
2018-12-09T02:48:59.255Z,7.90
2018-12-09T02:51:26.547Z,7.90
2018-12-09T02:53:53.753Z,7.90
2018-12-09T02:56:26.357Z,7.90
2018-12-09T02:58:52.595Z,7.90
2018-12-09T03:01:18.980Z,7.90
2018-12-09T03:03:45.455Z,7.80
2018-12-09T03:06:11.951Z,7.80
2018-12-09T03:08:38.978Z,7.80
2018-12-09T03:11:05.772Z,7.80
2018-12-09T03:13:32.240Z,7.80
2018-12-09T03:15:58.678Z,7.80
2018-12-09T03:18:25.016Z,7.80
2018-12-09T03:20:51.320Z,7.80
2018-12-09T03:23:17.559Z,7.90
2018-12-09T03:25:43.676Z,7.80
2018-12-09T03:28:10.032Z,7.80
2018-12-09T03:30:36.368Z,7.90
2018-12-09T03:33:02.828Z,7.80
2018-12-09T03:35:29.896Z,7.80
2018-12-09T03:38:02.298Z,7.80
2018-12-09T03:40:28.826Z,7.80
2018-12-09T03:42:56.211Z,7.80
2018-12-09T03:45:22.462Z,7.80
2018-12-09T03:47:48.562Z,7.80
2018-12-09T03:50:20.945Z,7.80
2018-12-09T03:52:47.216Z,7.80
2018-12-09T03:55:19.923Z,7.80
2018-12-09T03:57:46.181Z,7.80
2018-12-09T04:00:12.917Z,7.70
2018-12-09T04:02:39.173Z,7.70
2018-12-09T04:05:05.637Z,7.70
2018-12-09T04:07:31.988Z,7.80
2018-12-09T04:09:58.384Z,7.80
2018-12-09T04:12:24.608Z,7.80
2018-12-09T04:14:50.884Z,7.80
2018-12-09T04:17:18.452Z,7.80
2018-12-09T04:19:44.797Z,7.80
2018-12-09T04:22:10.961Z,7.80
2018-12-09T04:24:37.308Z,7.80
2018-12-09T04:27:03.944Z,7.80
2018-12-09T04:29:30.371Z,7.80
2018-12-09T04:31:56.769Z,7.80
2018-12-09T04:34:23.000Z,7.80
2018-12-09T04:36:49.360Z,7.80
2018-12-09T04:39:15.624Z,7.80
2018-12-09T04:41:41.955Z,7.80
2018-12-09T04:44:14.469Z,7.70
2018-12-09T04:46:41.035Z,7.70
2018-12-09T04:49:07.156Z,7.70
2018-12-09T04:51:45.381Z,7.70
2018-12-09T04:54:11.539Z,7.70
2018-12-09T04:56:37.817Z,7.70
2018-12-09T04:59:15.227Z,7.70
2018-12-09T05:01:42.207Z,7.80
2018-12-09T05:04:08.439Z,7.80
2018-12-09T05:06:34.616Z,7.80
2018-12-09T05:09:00.784Z,7.70
2018-12-09T05:11:27.099Z,7.80
2018-12-09T05:13:53.349Z,7.80
2018-12-09T05:16:19.605Z,7.80
2018-12-09T05:18:45.831Z,7.80
2018-12-09T05:21:12.088Z,7.80
2018-12-09T05:23:38.459Z,7.70
2018-12-09T05:26:04.607Z,7.60
2018-12-09T05:28:37.210Z,7.50
2018-12-09T05:31:03.467Z,7.50
2018-12-09T05:33:29.602Z,7.50
2018-12-09T05:35:55.993Z,7.50
2018-12-09T05:38:22.254Z,7.50
2018-12-09T05:40:49.581Z,7.50
2018-12-09T05:43:16.073Z,7.50
2018-12-09T05:45:42.318Z,7.50
2018-12-09T05:48:08.548Z,7.40
2018-12-09T05:50:34.896Z,7.30
2018-12-09T05:53:01.025Z,7.30
2018-12-09T05:55:27.719Z,7.30
2018-12-09T05:57:53.952Z,7.20
2018-12-09T06:00:20.612Z,7.20
2018-12-09T06:02:52.815Z,7.10
2018-12-09T06:05:20.290Z,7.10
2018-12-09T06:07:47.032Z,7.20
2018-12-09T06:10:13.336Z,7.20
2018-12-09T06:12:39.676Z,7.20
2018-12-09T06:15:06.302Z,7.20
2018-12-09T06:17:39.023Z,7.20
2018-12-09T06:20:05.530Z,7.20
2018-12-09T06:22:31.766Z,7.20
2018-12-09T06:24:57.924Z,7.20
2018-12-09T06:27:24.215Z,7.20
2018-12-09T06:29:50.487Z,7.20
2018-12-09T06:32:16.663Z,7.20
2018-12-09T06:34:44.300Z,7.20
2018-12-09T06:37:10.647Z,7.30
2018-12-09T06:39:37.690Z,7.30
2018-12-09T06:42:04.148Z,7.30
2018-12-09T06:44:30.531Z,7.20
2018-12-09T06:46:56.908Z,7.30
2018-12-09T06:49:23.195Z,7.30
2018-12-09T06:51:50.188Z,7.20
2018-12-09T06:54:16.504Z,7.20
2018-12-09T06:56:42.631Z,7.20
2018-12-09T06:59:15.233Z,7.10
2018-12-09T07:01:41.786Z,7.10
2018-12-09T07:04:08.064Z,7.00
2018-12-09T07:06:34.307Z,7.10
2018-12-09T07:09:00.552Z,7.10
2018-12-09T07:11:26.773Z,7.10
2018-12-09T07:13:53.020Z,7.10
2018-12-09T07:16:19.586Z,7.10
2018-12-09T07:18:52.483Z,7.00
2018-12-09T07:21:25.193Z,7.00
2018-12-09T07:23:53.412Z,7.00
2018-12-09T07:26:19.714Z,7.00
2018-12-09T07:28:52.156Z,6.90
2018-12-09T07:31:18.419Z,6.90
2018-12-09T07:33:51.144Z,6.90
2018-12-09T07:36:23.841Z,6.90
2018-12-09T07:38:50.411Z,6.80
2018-12-09T07:41:16.676Z,6.80
2018-12-09T07:43:43.072Z,6.80
2018-12-09T07:46:09.467Z,6.80
2018-12-09T07:48:35.782Z,6.90
2018-12-09T07:51:03.147Z,6.90
2018-12-09T07:53:29.483Z,6.90
2018-12-09T07:55:56.424Z,6.90
2018-12-09T07:58:22.700Z,6.80
2018-12-09T08:00:49.134Z,6.80
2018-12-09T08:03:15.414Z,6.80
2018-12-09T08:05:47.827Z,6.80
2018-12-09T08:08:14.053Z,6.80
2018-12-09T08:10:40.242Z,6.80
2018-12-09T08:13:06.482Z,6.80
2018-12-09T08:15:34.143Z,6.80
2018-12-09T08:18:07.040Z,6.90
2018-12-09T08:20:33.491Z,6.90
2018-12-09T08:23:06.044Z,6.90
2018-12-09T08:25:38.666Z,6.90
2018-12-09T08:28:05.258Z,6.90
2018-12-09T08:30:37.933Z,6.90
2018-12-09T08:33:04.320Z,6.90
2018-12-09T08:35:30.929Z,7.00
2018-12-09T08:37:57.174Z,7.00
2018-12-09T08:40:29.609Z,7.00
2018-12-09T08:42:55.725Z,7.00
2018-12-09T08:45:28.354Z,7.00
2018-12-09T08:47:55.029Z,7.10
2018-12-09T08:50:21.291Z,7.10
2018-12-09T08:52:47.412Z,7.10
2018-12-09T08:55:19.869Z,7.10
2018-12-09T08:57:46.125Z,7.10
2018-12-09T09:00:16.642Z,7.10
2018-12-09T09:02:49.207Z,7.10
2018-12-09T09:05:15.543Z,7.10
2018-12-09T09:07:42.339Z,7.20
2018-12-09T09:10:08.896Z,7.20
2018-12-09T09:12:35.263Z,7.20
2018-12-09T09:15:01.920Z,7.20
2018-12-09T09:17:27.993Z,7.30
2018-12-09T09:19:54.225Z,7.30
2018-12-09T09:22:21.061Z,7.30
2018-12-09T09:24:47.398Z,7.30
2018-12-09T09:27:19.879Z,7.30
2018-12-09T09:29:47.460Z,7.30
2018-12-09T09:32:13.635Z,7.30
2018-12-09T09:34:40.024Z,7.30
2018-12-09T09:37:12.764Z,7.40
2018-12-09T09:39:39.217Z,7.40
2018-12-09T09:42:05.327Z,7.40
2018-12-09T09:44:31.755Z,7.40
2018-12-09T09:46:58.040Z,7.40
2018-12-09T09:49:24.379Z,7.40
2018-12-09T09:51:50.878Z,7.40
2018-12-09T09:54:23.412Z,7.30
2018-12-09T09:56:49.555Z,7.30
2018-12-09T09:59:15.787Z,7.30
2018-12-09T10:01:42.955Z,7.30
2018-12-09T10:04:09.431Z,7.30
2018-12-09T10:06:41.911Z,7.30
2018-12-09T10:09:14.431Z,7.40
2018-12-09T10:11:40.866Z,7.40
2018-12-09T10:14:13.279Z,7.50
2018-12-09T10:16:39.748Z,7.50
2018-12-09T10:19:06.864Z,7.50
2018-12-09T10:21:39.327Z,7.60
2018-12-09T10:24:12.799Z,7.60
2018-12-09T10:26:39.159Z,7.60
2018-12-09T10:29:05.557Z,7.60
2018-12-09T10:31:37.799Z,7.70
2018-12-09T10:34:04.431Z,7.70
2018-12-09T10:36:30.938Z,7.80
2018-12-09T10:38:58.124Z,7.80
2018-12-09T10:41:30.907Z,7.80
2018-12-09T10:43:57.112Z,7.80
2018-12-09T10:46:24.591Z,7.90
2018-12-09T10:48:51.535Z,7.90
2018-12-09T10:51:18.823Z,7.90
2018-12-09T10:53:51.180Z,7.90
2018-12-09T10:56:17.546Z,7.90
2018-12-09T10:58:49.900Z,8.00
2018-12-09T11:01:22.222Z,8.00
2018-12-09T11:03:55.567Z,8.10
2018-12-09T11:06:28.353Z,8.20
2018-12-09T11:08:54.769Z,8.20
2018-12-09T11:11:21.078Z,8.20
2018-12-09T11:13:58.076Z,8.30
2018-12-09T11:16:21.790Z,8.30
2018-12-09T11:18:48.339Z,8.40
2018-12-09T11:21:14.673Z,8.40
2018-12-09T11:23:41.132Z,8.40
2018-12-09T11:29:07.235Z,8.50
2018-12-09T11:31:39.848Z,8.50
2018-12-09T11:34:12.588Z,8.50
2018-12-09T11:36:39.061Z,8.50
2018-12-09T11:39:05.708Z,8.50
2018-12-09T11:41:32.621Z,8.60
2018-12-09T11:43:58.965Z,8.60
2018-12-09T11:46:25.472Z,8.70
2018-12-09T11:48:52.798Z,8.80
2018-12-09T11:51:19.332Z,8.80
2018-12-09T11:53:45.828Z,8.80
2018-12-09T11:56:13.160Z,8.80
2018-12-09T11:58:44.659Z,8.80
2018-12-09T12:01:11.982Z,8.80
2018-12-09T12:03:44.372Z,8.80
2018-12-09T12:06:10.777Z,8.90
2018-12-09T12:08:37.043Z,8.90
2018-12-09T12:11:03.447Z,8.90
2018-12-09T12:13:30.347Z,8.90
2018-12-09T12:16:03.184Z,9.00
2018-12-09T12:18:29.886Z,9.00
2018-12-09T12:21:02.598Z,8.90
2018-12-09T12:23:29.461Z,8.90
2018-12-09T12:25:56.174Z,8.90
2018-12-09T12:28:22.505Z,8.90
2018-12-09T12:30:55.327Z,8.90
2018-12-09T12:33:21.635Z,8.90
2018-12-09T12:35:47.883Z,8.90
2018-12-09T12:38:14.295Z,8.90
2018-12-09T12:40:47.032Z,8.90
2018-12-09T12:43:18.630Z,8.90
2018-12-09T12:45:45.919Z,9.00
2018-12-09T12:48:12.485Z,8.80
2018-12-09T12:50:39.796Z,8.40
2018-12-09T12:53:06.029Z,8.00
2018-12-09T12:55:32.682Z,7.60
2018-12-09T12:57:59.084Z,7.40
2018-12-09T13:00:25.487Z,7.30
2018-12-09T13:02:58.071Z,7.30
2018-12-09T13:05:24.668Z,7.30
2018-12-09T13:07:51.043Z,7.30
2018-12-09T13:10:17.478Z,7.30
2018-12-09T13:12:43.819Z,7.30
2018-12-09T13:15:10.138Z,7.30
2018-12-09T13:17:36.690Z,7.30
2018-12-09T13:20:04.954Z,7.30
2018-12-09T13:22:52.587Z,7.40
2018-12-09T13:25:19.876Z,7.40
2018-12-09T13:27:46.341Z,7.50
2018-12-09T13:30:13.441Z,7.50
2018-12-09T13:32:39.810Z,7.60
2018-12-09T13:35:12.739Z,7.50
2018-12-09T13:37:39.977Z,7.50
2018-12-09T13:40:12.987Z,7.50
2018-12-09T13:42:39.365Z,7.50
2018-12-09T13:45:06.143Z,7.50
2018-12-09T13:50:32.512Z,7.50
2018-12-09T13:53:05.234Z,7.50
2018-12-09T13:55:32.531Z,7.50
2018-12-09T13:57:58.956Z,7.60
2018-12-09T14:00:25.503Z,7.60
2018-12-09T14:02:51.966Z,7.60
2018-12-09T14:05:18.312Z,7.70
2018-12-09T14:07:50.843Z,7.70
2018-12-09T14:10:17.949Z,7.70
2018-12-09T14:12:44.195Z,7.70
2018-12-09T14:15:10.755Z,7.60
2018-12-09T14:17:37.187Z,7.60
2018-12-09T14:20:05.085Z,7.60
2018-12-09T14:22:31.419Z,7.60
2018-12-09T14:24:57.669Z,7.60
2018-12-09T14:27:24.270Z,7.60
2018-12-09T14:29:56.949Z,7.60
2018-12-09T14:32:23.322Z,7.60
2018-12-09T14:34:49.694Z,7.60
2018-12-09T14:37:16.265Z,7.60
2018-12-09T14:39:49.155Z,7.60
2018-12-09T14:42:16.430Z,7.60
2018-12-09T14:44:42.893Z,7.60
2018-12-09T14:47:09.361Z,7.50
2018-12-09T14:49:35.796Z,7.50
2018-12-09T14:52:02.286Z,7.50
2018-12-09T14:54:28.833Z,7.50
2018-12-09T14:56:55.453Z,7.50
2018-12-09T14:59:21.898Z,7.50
2018-12-09T15:01:48.524Z,7.50
2018-12-09T15:04:15.924Z,7.50
2018-12-09T15:06:42.687Z,7.50
2018-12-09T15:09:09.196Z,7.50
2018-12-09T15:11:35.806Z,7.50
2018-12-09T15:14:03.173Z,7.50
2018-12-09T15:16:29.355Z,7.50
2018-12-09T15:19:09.191Z,7.50
2018-12-09T15:21:41.511Z,7.50
2018-12-09T15:24:07.751Z,7.40
2018-12-09T15:26:34.160Z,7.40
2018-12-09T15:29:06.823Z,7.40
2018-12-09T15:31:33.295Z,7.40
2018-12-09T15:33:59.553Z,7.40
2018-12-09T15:36:26.043Z,7.40
2018-12-09T15:38:52.514Z,7.30
2018-12-09T15:41:25.211Z,7.30
2018-12-09T15:43:51.503Z,7.30
2018-12-09T15:46:17.862Z,7.30
2018-12-09T15:48:50.148Z,7.30
2018-12-09T15:51:16.727Z,7.30
2018-12-09T15:53:42.984Z,7.30
2018-12-09T15:56:09.426Z,7.20
2018-12-09T15:58:35.762Z,7.20
2018-12-09T16:01:02.567Z,7.20
2018-12-09T16:03:28.926Z,7.20
2018-12-09T16:08:58.800Z,7.10
2018-12-09T16:11:26.172Z,7.10
2018-12-09T16:13:59.735Z,7.10
2018-12-09T16:16:27.321Z,7.00
2018-12-09T16:19:00.944Z,7.00
2018-12-09T16:21:31.733Z,7.00
2018-12-09T16:24:05.300Z,7.00
2018-12-09T16:26:38.620Z,7.00
2018-12-09T16:29:11.163Z,7.00
2018-12-09T16:31:43.699Z,6.90
2018-12-09T16:34:09.891Z,6.90
2018-12-09T16:36:39.881Z,6.90
2018-12-09T16:39:06.144Z,6.90
2018-12-09T16:41:34.445Z,6.90
2018-12-09T16:44:03.031Z,6.90
2018-12-09T16:46:29.427Z,6.90
2018-12-09T16:49:02.500Z,6.90
2018-12-09T16:51:35.326Z,6.90
2018-12-09T16:54:01.540Z,7.00
2018-12-09T16:56:36.304Z,7.00
2018-12-09T16:59:09.136Z,7.00
2018-12-09T17:01:42.563Z,7.00
2018-12-09T17:04:10.909Z,7.00
2018-12-09T17:06:37.123Z,7.00
2018-12-09T17:09:05.801Z,7.10
2018-12-09T17:11:32.767Z,7.10
2018-12-09T17:13:59.159Z,7.10
2018-12-09T17:16:31.171Z,7.00
2018-12-09T17:18:57.505Z,7.00
2018-12-09T17:21:30.957Z,7.00
2018-12-09T17:24:05.764Z,7.00
2018-12-09T17:26:32.915Z,7.00
2018-12-09T17:29:05.398Z,7.00
2018-12-09T17:31:28.596Z,7.00
2018-12-09T17:33:55.135Z,7.00
2018-12-09T17:36:21.920Z,7.00
2018-12-09T17:38:48.289Z,7.00
2018-12-09T17:41:14.742Z,6.90
2018-12-09T17:43:41.571Z,6.80
2018-12-09T17:46:07.850Z,6.70
2018-12-09T17:48:40.333Z,6.70
2018-12-09T17:51:06.938Z,6.60
2018-12-09T17:53:43.323Z,6.60
2018-12-09T17:56:15.980Z,6.50
2018-12-09T17:58:48.630Z,6.50
2018-12-09T18:01:20.710Z,6.50
2018-12-09T18:03:47.091Z,6.50
2018-12-09T18:06:26.602Z,6.50
2018-12-09T18:08:53.086Z,6.50
2018-12-09T18:11:25.616Z,6.40
2018-12-09T18:13:58.087Z,6.40
2018-12-09T18:16:25.391Z,6.40
2018-12-09T18:18:57.897Z,6.30
2018-12-09T18:21:24.563Z,6.30
2018-12-09T18:23:57.464Z,6.30
2018-12-09T18:26:30.177Z,6.30
2018-12-09T18:29:03.032Z,6.20
2018-12-09T18:31:34.027Z,6.20
2018-12-09T18:34:06.607Z,6.20
2018-12-09T18:36:33.143Z,6.20
2018-12-09T18:38:59.509Z,6.20
2018-12-09T18:41:26.051Z,6.20
2018-12-09T18:43:52.632Z,6.20
2018-12-09T18:46:19.099Z,6.20
2018-12-09T18:48:53.046Z,6.20
2018-12-09T18:51:19.305Z,6.20
2018-12-09T18:53:45.908Z,6.10
2018-12-09T18:56:12.426Z,6.10
2018-12-09T18:58:38.999Z,6.10
2018-12-09T19:01:11.461Z,6.10
2018-12-09T19:03:38.444Z,6.10
2018-12-09T19:06:11.663Z,6.00
2018-12-09T19:08:38.468Z,6.10
2018-12-09T19:11:11.235Z,6.10
2018-12-09T19:13:37.728Z,6.10
2018-12-09T19:16:10.612Z,6.10
2018-12-09T19:18:37.029Z,6.20
2018-12-09T19:21:03.338Z,6.20
2018-12-09T19:23:30.016Z,6.20
2018-12-09T19:26:02.833Z,6.20
2018-12-09T19:28:35.697Z,6.20
2018-12-09T19:31:02.107Z,6.20
2018-12-09T19:33:33.613Z,6.30
2018-12-09T19:36:00.203Z,6.30
2018-12-09T19:38:26.769Z,6.30
2018-12-09T19:41:05.652Z,6.30
2018-12-09T19:43:32.392Z,6.20
2018-12-09T19:46:05.191Z,6.20
2018-12-09T19:48:35.331Z,6.20
2018-12-09T19:51:08.194Z,6.10
2018-12-09T19:53:34.635Z,6.10
2018-12-09T19:56:07.234Z,6.10
2018-12-09T19:58:34.231Z,6.10
2018-12-09T20:01:02.759Z,6.10
2018-12-09T20:03:35.273Z,6.10
2018-12-09T20:06:01.542Z,6.10
2018-12-09T20:08:31.244Z,6.10
2018-12-09T20:11:04.020Z,6.10
2018-12-09T20:13:30.744Z,6.10
2018-12-09T20:16:03.739Z,6.10
2018-12-09T20:18:36.200Z,6.00
2018-12-09T20:21:02.714Z,6.00
2018-12-09T20:23:44.016Z,6.00
2018-12-09T20:26:11.287Z,6.10
2018-12-09T20:28:37.824Z,6.10
2018-12-09T20:31:04.061Z,6.10
2018-12-09T20:33:31.122Z,6.00
2018-12-09T20:36:03.728Z,6.00
2018-12-09T20:38:35.148Z,6.00
2018-12-09T20:41:07.822Z,6.00
2018-12-09T20:43:34.019Z,6.00
2018-12-09T20:46:01.222Z,6.00
2018-12-09T20:48:27.737Z,6.00
2018-12-09T20:50:54.285Z,6.00
2018-12-09T20:53:20.668Z,6.00
2018-12-09T20:55:47.860Z,6.00
2018-12-09T20:58:23.070Z,6.00
2018-12-09T21:00:55.731Z,6.00
2018-12-09T21:03:22.003Z,6.00
2018-12-09T21:05:51.731Z,6.00
2018-12-09T21:08:24.160Z,5.90
2018-12-09T21:10:56.687Z,6.00
2018-12-09T21:13:22.943Z,5.90
2018-12-09T21:15:57.812Z,5.90
2018-12-09T21:18:30.843Z,5.90
2018-12-09T21:20:57.411Z,5.90
2018-12-09T21:23:27.010Z,5.90
2018-12-09T21:25:53.344Z,5.90
2018-12-09T21:28:21.725Z,5.90
2018-12-09T21:30:48.099Z,5.90
2018-12-09T21:33:20.711Z,5.90
2018-12-09T21:35:47.232Z,5.90
2018-12-09T21:38:13.375Z,5.80
2018-12-09T21:40:39.829Z,5.80
2018-12-09T21:43:10.219Z,5.80
2018-12-09T21:45:43.492Z,5.80
2018-12-09T21:48:09.863Z,5.80
2018-12-09T21:50:36.318Z,5.70
2018-12-09T21:53:02.936Z,5.70
2018-12-09T21:55:30.508Z,5.70
2018-12-09T21:58:18.636Z,5.70
2018-12-09T22:00:47.052Z,5.70
2018-12-09T22:03:13.360Z,5.70
2018-12-09T22:05:45.807Z,5.70
2018-12-09T22:08:16.149Z,5.70
2018-12-09T22:10:43.388Z,5.70
2018-12-09T22:13:10.765Z,5.70
2018-12-09T22:15:38.151Z,5.80
2018-12-09T22:18:05.558Z,5.80
2018-12-09T22:20:43.429Z,5.80
2018-12-09T22:23:09.675Z,5.70
2018-12-09T22:25:46.927Z,5.70
2018-12-09T22:28:15.328Z,5.60
2018-12-09T22:31:06.134Z,5.60
2018-12-09T22:33:43.832Z,5.50
2018-12-09T22:36:13.440Z,5.50
2018-12-09T22:38:46.912Z,5.50
2018-12-09T22:41:13.232Z,5.40
2018-12-09T22:43:41.636Z,5.40
2018-12-09T22:46:12.645Z,5.40
2018-12-09T22:48:46.407Z,5.40
2018-12-09T22:51:22.740Z,5.40
2018-12-09T22:53:59.465Z,5.40
2018-12-09T22:56:27.795Z,5.40
2018-12-09T22:58:53.975Z,5.50
2018-12-09T23:01:28.547Z,5.50
2018-12-09T23:04:01.129Z,5.50
2018-12-09T23:06:32.128Z,5.50
2018-12-09T23:09:04.475Z,5.50
2018-12-09T23:11:36.852Z,5.50
2018-12-09T23:14:03.140Z,5.50
2018-12-09T23:16:29.439Z,5.50
2018-12-09T23:19:02.805Z,5.50
2018-12-09T23:21:28.972Z,5.50
2018-12-09T23:23:56.178Z,5.50
2018-12-09T23:26:22.550Z,5.50
2018-12-09T23:28:54.759Z,5.50
2018-12-09T23:31:26.563Z,5.50
2018-12-09T23:33:53.771Z,5.50
2018-12-09T23:36:20.763Z,5.50
2018-12-09T23:38:47.255Z,5.50
2018-12-09T23:41:20.143Z,5.50
2018-12-09T23:43:51.332Z,5.50
2018-12-09T23:46:17.926Z,5.50
2018-12-09T23:48:50.763Z,5.50
2018-12-09T23:51:24.998Z,5.50
2018-12-09T23:54:04.699Z,5.50
2018-12-09T23:56:32.031Z,5.40
2018-12-09T23:58:58.311Z,5.40
